Terminal Aerodrome Forecast
Issued by NWS Wakefield, VA

Home | Current Version | Previous Version | Text Only | Print | Product List | Glossary On
Versions: 1 2 3 4 5 6 7 8 9 10 11 12 13 14
000
FTUS41 KAKQ 301700
TAFECG
TAF
KECG 301720Z 3018/3118 02005KT P6SM BKN100
     FM302100 10005KT P6SM SCT100
     FM310100 VRB04KT P6SM SCT100
     FM311300 15006KT P6SM BKN100=

USA.gov is the U.S. government's official web portal to all federal, state and local government web resources and services.